Time;durP1;ratioP1;P1;durP2;ratioP2;P2;SDS_P1;SDS_P2;PMS_P1;PMS_P2;Temp;Humidity;BMP_temperature;BMP_pressure;BME280_temperature;BME280_humidity;BME280_pressure;Samples;Min_cycle;Max_cycle;Signal;HPM_P1;HPM_P2
2022/06/30 00:00:42;;;;;;;3.22;2.42;;;19.10;53.50;;;;;;5119246;23;20032;-59
2022/06/30 00:02:44;;;;;;;3.30;2.58;;;19.10;53.60;;;;;;5121730;23;20031;-57
2022/06/30 00:04:47;;;;;;;3.25;2.30;;;19.00;53.80;;;;;;5095665;23;20123;-58
2022/06/30 00:06:50;;;;;;;3.53;2.70;;;18.90;53.80;;;;;;5118432;23;20048;-58
2022/06/30 00:08:52;;;;;;;3.50;2.33;;;18.90;54.10;;;;;;5088917;23;20024;-55
2022/06/30 00:10:55;;;;;;;3.35;2.33;;;18.90;54.80;;;;;;5122186;23;20063;-58
2022/06/30 00:12:57;;;;;;;3.40;2.33;;;18.80;54.30;;;;;;5119563;23;20625;-58
2022/06/30 00:14:59;;;;;;;3.38;2.50;;;18.70;54.40;;;;;;5116988;23;20058;-58
2022/06/30 00:17:01;;;;;;;3.95;2.53;;;18.70;54.50;;;;;;5119397;23;20028;-58
2022/06/30 00:19:03;;;;;;;2.70;2.00;;;18.60;54.60;;;;;;5116930;23;20342;-57
2022/06/30 00:21:07;;;;;;;3.10;2.10;;;18.60;54.70;;;;;;5118080;23;20024;-57
2022/06/30 00:23:09;;;;;;;5.85;2.60;;;18.50;54.90;;;;;;5116410;23;20322;-57
2022/06/30 00:25:13;;;;;;;3.45;2.30;;;18.50;55.00;;;;;;5123497;23;20035;-58
2022/06/30 00:27:15;;;;;;;3.83;2.58;;;18.50;55.10;;;;;;5091844;23;20961;-58
2022/06/30 00:29:18;;;;;;;2.78;1.95;;;18.40;55.10;;;;;;5086867;23;20032;-59
2022/06/30 00:31:20;;;;;;;4.38;2.15;;;18.40;55.30;;;;;;5122527;23;20028;-58
2022/06/30 00:33:23;;;;;;;3.13;2.30;;;18.40;55.40;;;;;;5118935;23;20548;-58
2022/06/30 00:35:26;;;;;;;2.50;1.98;;;18.30;55.40;;;;;;5115927;23;20030;-59
2022/06/30 00:37:28;;;;;;;3.03;2.20;;;18.30;55.50;;;;;;5115499;23;20103;-49
2022/06/30 00:39:31;;;;;;;3.92;2.20;;;18.30;55.60;;;;;;5120368;23;20367;-54
2022/06/30 00:41:33;;;;;;;3.78;2.33;;;18.20;55.60;;;;;;5113308;23;20481;-61
2022/06/30 00:43:48;;;;;;;5.13;2.22;;;18.20;55.70;;;;;;5116569;23;20028;-73
2022/06/30 00:45:50;;;;;;;3.58;1.90;;;18.20;55.90;;;;;;5119164;23;20042;-67
2022/06/30 00:47:53;;;;;;;2.13;1.92;;;18.50;55.90;;;;;;5118604;23;20119;-62
2022/06/30 00:49:55;;;;;;;2.65;1.58;;;19.30;54.60;;;;;;5095532;23;20024;-68
2022/06/30 00:51:59;;;;;;;3.03;1.48;;;20.10;53.00;;;;;;5118241;23;20039;-62
2022/06/30 00:54:03;;;;;;;2.30;1.30;;;20.80;51.80;;;;;;5116803;23;20455;-64
2022/06/30 00:56:07;;;;;;;2.05;1.35;;;21.40;50.50;;;;;;5119501;23;20067;-65
2022/06/30 00:58:11;;;;;;;4.05;1.50;;;22.00;49.60;;;;;;5120190;23;20251;-63
2022/06/30 01:00:14;;;;;;;3.35;1.50;;;22.40;48.80;;;;;;5115519;23;20025;-69
2022/06/30 01:02:17;;;;;;;3.08;1.50;;;22.80;48.20;;;;;;5120350;23;20518;-66
2022/06/30 01:04:20;;;;;;;1.30;1.10;;;23.30;47.50;;;;;;5072665;23;20551;-67
2022/06/30 01:06:23;;;;;;;2.28;1.10;;;23.60;47.10;;;;;;5094959;23;20315;-66
2022/06/30 01:08:26;;;;;;;;;;;23.90;46.60;;;;;;5091196;23;20028;-65
2022/06/30 01:24:07;;;;;;;1.15;1.00;;;25.00;44.90;;;;;;5117832;23;20884;-59
2022/06/30 01:26:14;;;;;;;2.08;1.00;;;24.40;46.40;;;;;;5115221;23;20025;-69
2022/06/30 01:28:16;;;;;;;5.90;1.33;;;24.00;47.20;;;;;;5094653;23;20362;-72
2022/06/30 01:30:18;;;;;;;3.10;1.42;;;23.70;47.80;;;;;;5104634;23;20024;-74
2022/06/30 01:32:20;;;;;;;2.75;1.20;;;23.40;48.40;;;;;;5070302;23;20032;-71
2022/06/30 01:34:23;;;;;;;4.22;1.15;;;23.20;48.50;;;;;;5089913;23;20040;-69
2022/06/30 01:36:25;;;;;;;1.17;0.82;;;23.00;48.80;;;;;;5090898;23;20578;-71
2022/06/30 01:38:27;;;;;;;4.55;1.23;;;22.90;49.50;;;;;;5070851;23;20044;-73
2022/06/30 01:40:33;;;;;;;1.75;1.08;;;22.70;49.70;;;;;;5094312;23;20268;-72
2022/06/30 01:42:35;;;;;;;1.63;0.98;;;22.60;50.10;;;;;;5039286;23;20061;-69
2022/06/30 01:44:38;;;;;;;3.00;1.33;;;22.50;50.50;;;;;;5092477;23;20028;-72
2022/06/30 01:46:50;;;;;;;1.50;1.08;;;22.30;50.80;;;;;;5070590;23;20136;-74
2022/06/30 01:48:52;;;;;;;1.55;0.93;;;22.20;50.90;;;;;;5096924;23;20024;-70
2022/06/30 01:50:54;;;;;;;1.27;0.95;;;22.10;51.00;;;;;;5094399;23;20028;-69
2022/06/30 01:52:58;;;;;;;1.38;0.90;;;22.00;51.00;;;;;;5091043;23;20039;-70
2022/06/30 01:55:00;;;;;;;1.27;1.10;;;22.00;51.30;;;;;;5072291;23;20025;-71
2022/06/30 01:57:03;;;;;;;2.77;1.00;;;22.00;51.30;;;;;;5067237;23;20032;-65
2022/06/30 01:59:06;;;;;;;2.60;1.13;;;21.90;51.40;;;;;;5090939;23;20694;-71
2022/06/30 02:01:08;;;;;;;2.67;1.02;;;21.80;51.30;;;;;;5065169;23;20286;-70
2022/06/30 02:03:10;;;;;;;2.72;0.82;;;21.80;51.60;;;;;;5095546;23;20076;-70
2022/06/30 02:05:13;;;;;;;1.55;0.90;;;21.70;51.60;;;;;;5093322;23;20610;-73
2022/06/30 02:07:16;;;;;;;5.53;1.48;;;21.60;51.50;;;;;;5066484;23;20092;-75
2022/06/30 02:09:18;;;;;;;0.75;0.73;;;21.60;51.70;;;;;;5098243;23;20024;-66
2022/06/30 02:11:20;;;;;;;3.40;1.27;;;21.50;51.80;;;;;;5093508;23;20561;-80
2022/06/30 02:13:23;;;;;;;3.60;1.02;;;21.50;51.90;;;;;;5090747;23;20036;-72
2022/06/30 02:15:34;;;;;;;2.33;0.90;;;21.50;52.10;;;;;;5094604;23;20079;-60
2022/06/30 02:17:37;;;;;;;3.15;1.33;;;21.40;52.10;;;;;;5094998;23;20127;-60
2022/06/30 02:19:39;;;;;;;8.70;1.50;;;21.40;52.90;;;;;;5095938;23;20032;-72
2022/06/30 02:21:41;;;;;;;16.30;2.72;;;21.40;52.90;;;;;;5063524;23;20438;-63
2022/06/30 02:23:43;;;;;;;19.67;2.65;;;21.40;52.90;;;;;;5063032;23;20033;-69
2022/06/30 02:25:46;;;;;;;18.67;1.73;;;21.40;53.20;;;;;;5072677;23;20120;-63
2022/06/30 02:27:48;;;;;;;15.70;2.20;;;21.40;53.50;;;;;;5064588;23;20033;-63
2022/06/30 02:29:54;;;;;;;4.63;1.95;;;21.40;53.60;;;;;;5091780;23;20520;-65
2022/06/30 02:31:56;;;;;;;11.10;1.83;;;21.40;53.50;;;;;;5095994;23;20028;-66
2022/06/30 02:33:58;;;;;;;15.07;2.30;;;21.30;53.40;;;;;;5097275;23;20063;-67
2022/06/30 02:36:00;;;;;;;5.72;1.33;;;21.30;53.40;;;;;;5066044;23;20116;-66
2022/06/30 02:38:10;;;;;;;5.97;1.05;;;21.30;53.40;;;;;;5067315;23;20123;-66
2022/06/30 02:40:13;;;;;;;4.07;1.20;;;21.20;53.30;;;;;;5093843;23;20328;-66
2022/06/30 02:42:15;;;;;;;4.28;0.90;;;21.20;53.40;;;;;;5096149;23;20039;-64
2022/06/30 02:44:17;;;;;;;6.10;1.10;;;21.20;53.60;;;;;;5064342;23;20033;-65
2022/06/30 02:46:20;;;;;;;2.88;1.20;;;21.10;53.60;;;;;;5091485;23;20035;-71
2022/06/30 02:48:22;;;;;;;9.20;1.10;;;21.10;53.70;;;;;;5071081;23;20338;-66
2022/06/30 02:50:24;;;;;;;2.75;0.80;;;21.10;53.50;;;;;;5065018;23;20736;-69
2022/06/30 02:52:26;;;;;;;2.03;0.88;;;21.00;53.80;;;;;;5092500;23;20250;-76
2022/06/30 02:54:28;;;;;;;4.00;1.15;;;21.00;53.80;;;;;;5070996;23;20522;-72
2022/06/30 02:56:31;;;;;;;3.42;1.13;;;21.00;54.00;;;;;;5095838;23;20031;-75
2022/06/30 02:58:33;;;;;;;2.33;0.80;;;21.00;54.10;;;;;;5066673;23;20033;-69
2022/06/30 03:00:35;;;;;;;4.88;1.38;;;21.00;54.00;;;;;;5072394;23;20068;-77
2022/06/30 03:02:38;;;;;;;16.33;1.42;;;21.00;54.60;;;;;;5099329;23;20102;-61
2022/06/30 03:04:40;;;;;;;;;;;21.50;53.60;;;;;;5092878;23;20043;-62
2022/06/30 03:06:42;;;;;;;1.08;0.68;;;21.70;52.90;;;;;;5091504;23;19920;-60
2022/06/30 03:08:45;;;;;;;5.60;1.02;;;21.70;53.00;;;;;;5097687;23;20032;-61
2022/06/30 03:10:47;;;;;;;1.60;0.73;;;22.10;52.40;;;;;;5065806;23;20401;-60
2022/06/30 03:12:49;;;;;;;4.47;1.10;;;22.70;51.40;;;;;;5065593;23;20475;-59
2022/06/30 03:14:52;;;;;;;3.13;0.90;;;23.30;50.00;;;;;;5072964;23;20029;-61
2022/06/30 03:16:54;;;;;;;1.52;0.60;;;23.90;48.80;;;;;;5071847;23;20276;-59
2022/06/30 03:18:56;;;;;;;0.80;0.65;;;24.40;48.00;;;;;;5092440;23;20135;-62
2022/06/30 03:20:58;;;;;;;3.38;0.98;;;24.90;47.10;;;;;;5097112;23;20102;-61
2022/06/30 03:23:00;;;;;;;0.55;0.40;;;25.40;46.50;;;;;;5101220;23;20047;-61
2022/06/30 03:25:03;;;;;;;0.40;0.40;;;25.70;46.00;;;;;;5094708;23;20025;-61
2022/06/30 03:27:05;;;;;;;1.20;0.67;;;26.00;45.60;;;;;;5092654;23;20134;-61
2022/06/30 03:29:08;;;;;;;0.50;0.50;;;26.30;45.20;;;;;;5070349;23;20032;-62
2022/06/30 03:31:10;;;;;;;1.77;0.88;;;26.60;44.70;;;;;;5066534;23;20073;-60
2022/06/30 03:33:12;;;;;;;0.52;0.52;;;26.90;44.60;;;;;;5094704;23;20028;-63
2022/06/30 03:35:15;;;;;;;1.10;0.70;;;27.10;44.30;;;;;;5071495;23;20033;-60
2022/06/30 03:37:17;;;;;;;0.70;0.57;;;27.20;43.90;;;;;;5096883;23;20540;-62
2022/06/30 03:39:19;;;;;;;0.88;0.63;;;27.50;43.80;;;;;;5068626;23;20063;-62
2022/06/30 03:41:21;;;;;;;1.92;0.80;;;27.70;43.50;;;;;;5066591;23;20503;-68
2022/06/30 03:43:24;;;;;;;0.50;0.50;;;27.80;43.20;;;;;;5072315;23;20068;-61
2022/06/30 03:45:27;;;;;;;0.57;0.50;;;28.00;43.10;;;;;;5093573;23;20039;-60
2022/06/30 03:47:28;;;;;;;;;;;28.20;42.80;;;;;;5095019;23;20497;-60
2022/06/30 03:49:31;;;;;;;0.70;0.60;;;28.40;42.80;;;;;;5096655;23;20278;-61
2022/06/30 03:51:33;;;;;;;1.27;0.50;;;28.50;42.40;;;;;;5094093;23;20526;-63
2022/06/30 03:53:36;;;;;;;0.73;0.50;;;28.70;42.20;;;;;;5093747;23;20399;-63
2022/06/30 03:55:39;;;;;;;0.50;0.50;;;28.80;41.90;;;;;;5096758;23;20020;-62
2022/06/30 03:57:40;;;;;;;;;;;29.00;41.80;;;;;;5073471;23;20465;-63
2022/06/30 03:59:43;;;;;;;1.58;0.60;;;29.20;41.70;;;;;;5093194;23;20319;-65
2022/06/30 04:01:46;;;;;;;0.80;0.70;;;29.30;41.40;;;;;;5092100;23;20107;-65
2022/06/30 04:03:48;;;;;;;0.40;0.33;;;29.50;41.30;;;;;;5098359;23;20032;-62
2022/06/30 04:05:50;;;;;;;1.07;0.90;;;29.50;42.00;;;;;;5066917;23;20321;-62
2022/06/30 04:07:52;;;;;;;3.40;0.80;;;29.20;41.50;;;;;;5094650;23;20033;-62
2022/06/30 04:09:54;;;;;;;0.50;0.50;;;28.80;42.10;;;;;;5099508;23;20370;-61
2022/06/30 04:11:57;;;;;;;0.67;0.50;;;28.30;42.70;;;;;;5093333;23;20863;-64
2022/06/30 04:13:59;;;;;;;0.77;0.60;;;27.90;43.10;;;;;;5092251;23;20035;-61
2022/06/30 04:16:01;;;;;;;0.60;0.50;;;27.50;44.00;;;;;;5068005;23;20536;-63
2022/06/30 04:18:03;;;;;;;0.93;0.47;;;27.20;44.00;;;;;;5100703;23;20997;-63
2022/06/30 04:20:15;;;;;;;0.40;0.40;;;27.00;44.40;;;;;;5091624;23;20823;-69
2022/06/30 04:22:17;;;;;;;0.70;0.50;;;26.70;44.60;;;;;;5094665;23;20020;-65
2022/06/30 04:24:20;;;;;;;0.90;0.80;;;26.50;45.00;;;;;;5092376;23;20032;-62
2022/06/30 04:26:22;;;;;;;0.65;0.60;;;26.30;45.10;;;;;;5098683;23;20025;-64
2022/06/30 04:28:24;;;;;;;0.50;0.50;;;26.20;45.50;;;;;;5068510;23;20107;-66
2022/06/30 04:32:46;;;;;;;0.68;0.55;;;25.90;45.60;;;;;;5092047;23;20040;-63
2022/06/30 04:34:49;;;;;;;0.65;0.55;;;25.70;45.70;;;;;;5091870;23;20033;-60
2022/06/30 04:36:51;;;;;;;0.77;0.60;;;25.60;45.90;;;;;;5099528;23;20025;-62
2022/06/30 04:38:53;;;;;;;1.02;0.70;;;25.50;46.10;;;;;;5094301;23;20135;-64
2022/06/30 04:43:16;;;;;;;0.93;0.80;;;25.40;45.40;;;;;;5092955;23;20033;-64
2022/06/30 04:45:18;;;;;;;0.95;0.65;;;25.30;45.80;;;;;;5065052;23;20511;-63
2022/06/30 04:47:20;;;;;;;1.20;0.70;;;25.10;45.90;;;;;;5096576;23;20062;-68
2022/06/30 04:49:23;;;;;;;2.17;0.80;;;25.10;46.20;;;;;;5095976;23;20024;-65
2022/06/30 04:51:25;;;;;;;0.95;0.63;;;24.90;46.20;;;;;;5090125;23;20039;-65
2022/06/30 04:53:28;;;;;;;1.52;0.90;;;24.90;46.40;;;;;;5098133;23;20422;-63
2022/06/30 04:55:30;;;;;;;0.70;0.63;;;24.80;46.60;;;;;;5097528;23;20571;-66
2022/06/30 04:57:32;;;;;;;0.85;0.60;;;24.70;46.60;;;;;;5094547;23;20031;-63
2022/06/30 04:59:34;;;;;;;1.07;0.80;;;24.60;46.70;;;;;;5093219;23;20036;-61
2022/06/30 05:01:36;;;;;;;1.15;0.63;;;24.60;46.90;;;;;;5069322;23;20036;-63
2022/06/30 05:03:39;;;;;;;1.52;0.80;;;24.50;46.60;;;;;;5067429;23;20028;-65
2022/06/30 05:05:41;;;;;;;1.63;1.00;;;24.40;46.00;;;;;;5064084;23;20112;-64
2022/06/30 05:07:43;;;;;;;1.85;0.90;;;24.20;46.30;;;;;;5073927;23;20040;-65
2022/06/30 05:09:46;;;;;;;3.20;1.10;;;24.10;45.90;;;;;;5092999;23;20558;-64
2022/06/30 05:11:48;;;;;;;1.13;0.90;;;24.00;46.10;;;;;;5091528;23;20047;-65
2022/06/30 05:13:50;;;;;;;2.83;1.00;;;23.80;46.40;;;;;;5098727;23;20028;-65
2022/06/30 05:15:52;;;;;;;0.90;0.85;;;23.70;46.40;;;;;;5095988;23;20316;-64
2022/06/30 05:17:55;;;;;;;1.47;0.83;;;23.50;46.40;;;;;;5092446;23;20028;-65
2022/06/30 05:19:57;;;;;;;1.70;0.82;;;23.40;46.70;;;;;;5094330;23;20227;-65
2022/06/30 05:22:00;;;;;;;2.20;0.93;;;23.30;46.90;;;;;;5098631;23;20028;-66
2022/06/30 05:26:29;;;;;;;1.08;0.80;;;23.10;47.10;;;;;;5071945;23;20052;-65
2022/06/30 05:28:31;;;;;;;1.80;0.90;;;22.90;46.90;;;;;;5096210;23;20078;-65
2022/06/30 05:30:34;;;;;;;1.95;0.93;;;22.80;47.10;;;;;;5093146;23;20099;-66
2022/06/30 05:32:37;;;;;;;2.10;0.98;;;22.70;47.40;;;;;;5092187;23;20029;-65
2022/06/30 05:34:40;;;;;;;1.35;0.93;;;22.60;47.60;;;;;;5098252;23;20378;-66
2022/06/30 05:36:43;;;;;;;1.52;1.00;;;22.50;47.80;;;;;;5092325;23;20029;-65
2022/06/30 05:38:45;;;;;;;1.17;1.00;;;22.50;47.70;;;;;;5095203;23;20092;-65
2022/06/30 05:40:47;;;;;;;2.60;0.90;;;22.30;47.90;;;;;;5072081;23;20029;-66
2022/06/30 05:42:49;;;;;;;1.80;0.90;;;22.30;48.00;;;;;;5096077;23;20098;-61
2022/06/30 05:44:52;;;;;;;0.82;0.70;;;22.20;47.80;;;;;;5094726;23;20293;-60
2022/06/30 05:46:57;;;;;;;1.35;0.90;;;22.10;48.50;;;;;;5103335;23;20076;-60
2022/06/30 05:48:59;;;;;;;0.80;0.65;;;22.00;48.00;;;;;;5085747;23;20508;-62
2022/06/30 05:51:01;;;;;;;0.88;0.70;;;21.90;48.20;;;;;;5105469;23;20409;-71
2022/06/30 05:53:04;;;;;;;1.52;0.80;;;21.90;48.00;;;;;;5110714;23;20446;-61
2022/06/30 05:55:06;;;;;;;1.73;0.93;;;21.90;48.40;;;;;;5109461;23;20478;-64
2022/06/30 05:57:09;;;;;;;0.85;0.60;;;21.80;48.40;;;;;;5100036;23;20666;-64
2022/06/30 05:59:11;;;;;;;0.82;0.80;;;21.80;48.40;;;;;;5095131;23;20040;-63
2022/06/30 06:01:13;;;;;;;1.58;0.90;;;21.80;48.70;;;;;;5066031;23;20593;-62
2022/06/30 06:03:16;;;;;;;0.98;0.90;;;21.70;48.70;;;;;;5099562;23;20486;-61
2022/06/30 06:05:19;;;;;;;1.42;0.80;;;21.70;48.70;;;;;;5096035;23;20497;-66
2022/06/30 06:07:21;;;;;;;0.85;0.75;;;21.70;48.90;;;;;;5093959;23;20028;-65
2022/06/30 06:09:24;;;;;;;1.00;0.68;;;21.70;49.10;;;;;;5068067;23;20029;-69
2022/06/30 06:11:26;;;;;;;1.17;0.60;;;21.60;49.20;;;;;;5067874;23;20688;-66
2022/06/30 06:13:28;;;;;;;1.75;1.00;;;21.60;49.50;;;;;;5092362;23;20291;-62
2022/06/30 06:15:30;;;;;;;0.63;0.60;;;21.60;49.60;;;;;;5066481;23;20396;-69
2022/06/30 06:17:47;;;;;;;2.85;0.60;;;21.60;49.70;;;;;;5072003;23;20068;-67
2022/06/30 06:19:49;;;;;;;0.52;0.52;;;21.60;49.80;;;;;;5070289;23;20599;-68
2022/06/30 06:21:51;;;;;;;2.00;0.60;;;21.50;49.90;;;;;;5093044;23;20460;-68
2022/06/30 06:23:54;;;;;;;0.73;0.73;;;21.50;50.10;;;;;;5063241;23;20029;-60
2022/06/30 06:25:57;;;;;;;1.58;0.47;;;21.50;50.10;;;;;;5067419;23;20391;-66
2022/06/30 06:30:19;;;;;;;1.48;0.63;;;21.50;50.30;;;;;;5098927;23;20029;-64
2022/06/30 06:32:22;;;;;;;1.60;0.75;;;21.50;50.50;;;;;;5093774;23;20930;-67
2022/06/30 06:34:24;;;;;;;2.53;1.00;;;21.40;50.50;;;;;;5083580;23;20107;-76
2022/06/30 06:36:30;;;;;;;2.03;0.63;;;21.40;50.30;;;;;;5062630;23;20703;-77
2022/06/30 06:38:32;;;;;;;2.20;0.80;;;21.40;50.40;;;;;;5095689;23;20451;-68
2022/06/30 06:40:34;;;;;;;1.75;0.93;;;21.40;50.60;;;;;;5090940;23;20024;-72
2022/06/30 06:42:36;;;;;;;1.52;0.60;;;21.30;50.70;;;;;;5093228;23;20078;-70
2022/06/30 06:44:42;;;;;;;3.05;1.02;;;21.30;51.00;;;;;;5096583;23;20425;-78
2022/06/30 06:46:47;;;;;;;0.65;0.65;;;21.30;51.00;;;;;;5068949;23;20033;-69
2022/06/30 06:48:49;;;;;;;2.53;0.85;;;21.30;51.10;;;;;;5088139;23;20105;-63
2022/06/30 06:50:55;;;;;;;1.58;0.68;;;21.30;51.20;;;;;;5090765;23;20024;-68
2022/06/30 06:53:00;;;;;;;2.47;0.65;;;21.30;51.30;;;;;;5067072;23;20028;-65
2022/06/30 06:55:03;;;;;;;2.33;0.60;;;21.30;51.30;;;;;;5069671;23;20102;-71
2022/06/30 06:57:06;;;;;;;0.90;0.60;;;21.30;51.40;;;;;;5065797;23;20037;-68
2022/06/30 06:59:08;;;;;;;1.75;0.75;;;21.30;51.80;;;;;;5091124;23;20336;-66
2022/06/30 07:01:10;;;;;;;3.15;0.70;;;21.20;50.70;;;;;;5096542;23;20103;-67
2022/06/30 07:03:13;;;;;;;0.60;0.60;;;21.20;50.70;;;;;;5086153;23;20183;-67
2022/06/30 07:05:15;;;;;;;1.57;0.60;;;21.20;50.70;;;;;;5037906;23;20064;-68
2022/06/30 07:07:17;;;;;;;1.40;0.70;;;21.10;50.70;;;;;;5065798;23;20030;-66
2022/06/30 07:09:23;;;;;;;0.65;0.60;;;21.10;50.70;;;;;;5091625;23;20028;-67
2022/06/30 07:11:25;;;;;;;1.10;0.70;;;21.10;50.70;;;;;;5086804;23;20036;-68
2022/06/30 07:13:28;;;;;;;1.10;0.60;;;21.10;50.80;;;;;;5064378;23;20037;-68
2022/06/30 07:15:36;;;;;;;0.88;0.60;;;21.00;50.70;;;;;;5094967;23;20051;-67
2022/06/30 07:17:38;;;;;;;0.47;0.47;;;21.00;50.90;;;;;;5097900;23;20517;-67
2022/06/30 07:19:40;;;;;;;2.22;0.60;;;21.00;50.90;;;;;;5093460;23;20380;-67
2022/06/30 07:21:43;;;;;;;0.77;0.45;;;21.00;50.90;;;;;;5093132;23;20024;-68
2022/06/30 07:23:51;;;;;;;0.50;0.50;;;20.90;50.70;;;;;;5095072;23;20422;-68
2022/06/30 07:25:57;;;;;;;0.70;0.55;;;20.90;50.90;;;;;;5098209;23;20503;-67
2022/06/30 07:28:05;;;;;;;2.50;0.70;;;20.90;50.90;;;;;;5066887;23;20456;-67
2022/06/30 07:30:11;;;;;;;0.90;0.50;;;20.80;50.90;;;;;;5066338;23;20041;-66
2022/06/30 07:32:16;;;;;;;0.65;0.40;;;20.80;50.90;;;;;;5093798;23;20024;-67
2022/06/30 07:34:19;;;;;;;0.50;0.50;;;20.80;51.60;;;;;;5093173;23;20043;-67
2022/06/30 07:36:21;;;;;;;0.50;0.50;;;20.80;51.00;;;;;;5098273;23;20601;-67
2022/06/30 07:38:23;;;;;;;0.85;0.50;;;20.70;51.00;;;;;;5091712;23;20033;-67
2022/06/30 07:40:25;;;;;;;0.50;0.50;;;20.70;51.00;;;;;;5091601;23;20581;-67
2022/06/30 07:42:28;;;;;;;0.43;0.40;;;20.70;51.10;;;;;;5096144;23;20032;-67
2022/06/30 07:44:33;;;;;;;1.58;0.52;;;20.70;51.10;;;;;;5087321;23;20036;-67
2022/06/30 07:46:35;;;;;;;0.73;0.57;;;20.70;51.10;;;;;;5063927;23;20032;-66
2022/06/30 07:48:38;;;;;;;0.68;0.50;;;20.60;51.00;;;;;;5062163;23;20574;-66
2022/06/30 07:50:40;;;;;;;0.80;0.60;;;20.60;50.80;;;;;;5095943;23;20482;-73
2022/06/30 07:52:44;;;;;;;0.93;0.60;;;20.60;51.00;;;;;;5065295;23;20296;-69
2022/06/30 07:54:46;;;;;;;1.98;0.75;;;20.60;51.10;;;;;;5087055;23;20266;-71
2022/06/30 07:56:48;;;;;;;0.90;0.80;;;20.60;51.20;;;;;;5092126;23;20580;-72
2022/06/30 07:58:50;;;;;;;1.02;0.68;;;20.60;51.40;;;;;;5065649;23;20708;-70
2022/06/30 08:00:53;;;;;;;1.27;0.88;;;20.50;51.50;;;;;;5090545;23;20440;-78
2022/06/30 08:02:55;;;;;;;2.23;0.93;;;20.60;51.60;;;;;;5092157;23;20112;-69
2022/06/30 08:04:57;;;;;;;4.10;1.15;;;20.50;51.60;;;;;;5095343;23;20028;-64
2022/06/30 08:07:01;;;;;;;6.00;1.23;;;20.50;51.60;;;;;;5086206;23;20025;-61
2022/06/30 08:09:04;;;;;;;26.65;1.42;;;20.50;51.90;;;;;;5087668;23;20363;-67
2022/06/30 08:11:13;;;;;;;8.47;1.70;;;20.50;52.00;;;;;;5060025;23;20029;-67
2022/06/30 08:13:15;;;;;;;3.00;1.08;;;20.50;52.20;;;;;;5092657;23;20075;-65
2022/06/30 08:15:17;;;;;;;5.88;1.20;;;20.50;52.40;;;;;;5083981;23;20097;-64
2022/06/30 08:17:19;;;;;;;6.03;1.17;;;20.50;52.50;;;;;;5090470;23;20304;-64
2022/06/30 08:19:22;;;;;;;3.65;1.10;;;20.50;52.60;;;;;;5096412;23;20039;-69
2022/06/30 08:21:24;;;;;;;2.55;1.55;;;20.50;52.60;;;;;;5097388;23;20318;-70
2022/06/30 08:23:26;;;;;;;4.95;1.48;;;20.50;52.90;;;;;;5094975;23;20028;-69
2022/06/30 08:25:29;;;;;;;2.63;1.63;;;20.50;53.60;;;;;;5095011;23;20036;-77
2022/06/30 08:27:31;;;;;;;3.50;1.50;;;20.50;53.10;;;;;;5071288;23;20120;-71
2022/06/30 08:29:33;;;;;;;5.32;2.70;;;20.50;53.00;;;;;;5095099;23;20028;-70
2022/06/30 08:31:39;;;;;;;5.95;3.55;;;20.50;51.70;;;;;;5063250;23;20021;-70
2022/06/30 08:33:41;;;;;;;5.47;3.50;;;20.40;51.20;;;;;;5096747;23;20663;-71
2022/06/30 08:35:43;;;;;;;7.90;3.20;;;20.40;51.10;;;;;;5094915;23;20274;-63
2022/06/30 08:37:45;;;;;;;4.80;3.00;;;20.30;51.00;;;;;;5065711;23;20033;-59
2022/06/30 08:42:12;;;;;;;4.13;2.20;;;20.30;51.60;;;;;;5093125;23;20056;-63
2022/06/30 08:44:17;;;;;;;4.72;2.50;;;20.30;51.90;;;;;;5063955;23;20099;-62
2022/06/30 08:46:23;;;;;;;6.13;2.22;;;20.30;52.20;;;;;;5097365;23;20025;-67
2022/06/30 08:48:26;;;;;;;6.43;2.90;;;20.30;52.30;;;;;;5097502;23;20206;-65
2022/06/30 08:50:28;;;;;;;7.78;2.58;;;20.30;52.30;;;;;;5065611;23;20029;-66
2022/06/30 08:52:32;;;;;;;9.82;2.53;;;20.30;52.70;;;;;;5095750;23;20457;-72
2022/06/30 08:54:38;;;;;;;9.60;2.35;;;20.20;53.10;;;;;;5098996;23;20052;-66
2022/06/30 08:56:43;;;;;;;6.75;2.25;;;20.20;53.30;;;;;;5096950;23;20032;-70
2022/06/30 08:58:47;;;;;;;5.03;2.00;;;20.20;53.30;;;;;;5092220;23;20032;-75
2022/06/30 09:00:53;;;;;;;3.53;2.33;;;20.20;53.40;;;;;;5089738;23;20633;-65
2022/06/30 09:02:55;;;;;;;6.18;2.05;;;20.30;53.50;;;;;;5094804;23;20103;-67
2022/06/30 09:04:58;;;;;;;4.03;1.92;;;20.20;53.60;;;;;;5096956;23;20032;-65
2022/06/30 09:07:00;;;;;;;;;;;20.20;53.50;;;;;;5067320;23;20048;-67
2022/06/30 09:09:03;;;;;;;4.88;2.05;;;20.20;53.50;;;;;;5093893;23;20026;-66
2022/06/30 09:11:05;;;;;;;5.78;1.90;;;20.30;53.70;;;;;;5097738;23;20432;-67
2022/06/30 09:13:07;;;;;;;5.75;2.25;;;20.30;53.80;;;;;;5091507;23;20063;-67
2022/06/30 09:15:10;;;;;;;4.47;2.45;;;20.20;53.70;;;;;;5091743;23;20099;-73
2022/06/30 09:17:30;;;;;;;3.83;2.00;;;20.20;53.80;;;;;;5096556;23;20107;-72
2022/06/30 09:19:33;;;;;;;3.58;2.15;;;20.20;53.80;;;;;;5088297;23;20207;-63
2022/06/30 09:21:35;;;;;;;3.47;2.20;;;20.20;53.80;;;;;;5093906;23;20136;-68
2022/06/30 09:23:37;;;;;;;2.47;1.88;;;20.20;53.80;;;;;;5090850;23;20218;-70
2022/06/30 09:25:41;;;;;;;3.10;2.00;;;20.20;53.90;;;;;;5063592;23;20033;-65
2022/06/30 09:27:47;;;;;;;3.15;1.90;;;20.20;53.90;;;;;;5090450;23;20028;-68
2022/06/30 09:30:00;;;;;;;3.60;2.08;;;20.30;54.00;;;;;;5094844;23;20028;-66
2022/06/30 09:32:03;;;;;;;2.95;1.90;;;20.20;54.00;;;;;;5095130;23;20133;-66
2022/06/30 09:34:12;;;;;;;;;;;20.20;54.00;;;;;;5040792;23;20127;-64
2022/06/30 09:36:26;;;;;;;3.67;1.85;;;20.20;53.80;;;;;;5090097;23;20299;-69
2022/06/30 09:38:27;;;;;;;;;;;20.20;53.80;;;;;;5094368;23;20173;-71
2022/06/30 09:40:38;;;;;;;2.35;1.55;;;20.20;53.70;;;;;;5093986;23;19920;-77
2022/06/30 09:42:46;;;;;;;2.35;1.70;;;20.30;53.80;;;;;;5091545;23;20051;-67
2022/06/30 09:44:49;;;;;;;2.45;1.60;;;20.20;53.70;;;;;;5092007;23;20048;-64
2022/06/30 09:47:03;;;;;;;;;;;20.20;53.80;;;;;;5098805;23;20033;-66
2022/06/30 09:49:11;;;;;;;2.58;1.85;;;20.20;53.80;;;;;;5098774;23;19919;-66
2022/06/30 09:51:14;;;;;;;3.95;1.60;;;20.20;53.90;;;;;;5094914;23;20487;-63
2022/06/30 09:53:16;;;;;;;2.17;1.83;;;20.20;53.90;;;;;;5091666;23;20571;-63
2022/06/30 09:55:19;;;;;;;2.85;1.80;;;20.20;53.90;;;;;;5088012;23;20020;-67
2022/06/30 09:57:22;;;;;;;2.17;1.67;;;20.20;53.90;;;;;;5070224;23;20368;-65
2022/06/30 09:59:28;;;;;;;2.03;1.50;;;20.20;54.00;;;;;;5097238;23;20780;-64
2022/06/30 10:01:53;;;;;;;2.17;1.67;;;20.20;54.00;;;;;;5092671;23;20032;-65
2022/06/30 10:04:00;;;;;;;2.50;1.92;;;20.10;53.80;;;;;;5097254;23;20032;-71
2022/06/30 10:06:11;;;;;;;3.03;1.67;;;20.10;53.90;;;;;;5041661;23;20705;-65
2022/06/30 10:08:17;;;;;;;2.85;1.83;;;20.10;54.00;;;;;;5095491;23;20857;-69
2022/06/30 10:10:20;;;;;;;8.80;1.80;;;20.10;54.10;;;;;;5092518;23;20024;-67
2022/06/30 10:12:26;;;;;;;3.25;1.83;;;20.10;54.20;;;;;;5064596;23;20398;-63
2022/06/30 10:14:31;;;;;;;4.47;1.65;;;20.10;54.20;;;;;;5093953;23;20312;-65
2022/06/30 10:16:41;;;;;;;2.45;1.50;;;20.10;54.10;;;;;;5096149;23;20029;-63
2022/06/30 10:18:53;;;;;;;4.03;1.60;;;20.10;54.10;;;;;;5044069;23;20045;-68
2022/06/30 10:20:58;;;;;;;1.88;1.40;;;20.10;54.10;;;;;;5096922;23;20106;-67
2022/06/30 10:23:00;;;;;;;8.90;2.00;;;20.10;54.00;;;;;;5092934;23;20577;-64
2022/06/30 10:25:03;;;;;;;2.70;1.58;;;20.10;53.90;;;;;;5091988;23;20854;-62
2022/06/30 10:27:12;;;;;;;6.00;1.70;;;20.10;53.90;;;;;;5096185;23;20179;-65
2022/06/30 10:29:15;;;;;;;2.20;1.42;;;20.10;54.00;;;;;;5068671;23;20080;-66
2022/06/30 10:31:42;;;;;;;3.15;1.52;;;20.10;54.00;;;;;;5092497;23;20661;-63
2022/06/30 10:34:02;;;;;;;1.45;1.33;;;20.10;53.90;;;;;;5093884;23;20035;-64
2022/06/30 10:36:14;;;;;;;1.80;1.40;;;20.10;53.90;;;;;;5064920;23;20028;-66
2022/06/30 10:38:27;;;;;;;2.13;1.30;;;20.20;53.80;;;;;;5092287;23;20501;-66
2022/06/30 10:40:47;;;;;;;1.88;1.50;;;20.10;53.60;;;;;;5095383;23;20032;-72
2022/06/30 10:42:55;;;;;;;3.42;1.80;;;20.10;53.60;;;;;;5076209;23;20048;-68
2022/06/30 10:45:11;;;;;;;1.50;1.20;;;20.10;53.60;;;;;;5102108;23;20013;-67
2022/06/30 10:47:13;;;;;;;3.22;1.50;;;20.10;53.70;;;;;;5128100;23;20035;-62
2022/06/30 10:49:16;;;;;;;2.97;1.60;;;20.10;53.70;;;;;;5108092;23;20027;-67
2022/06/30 10:51:18;;;;;;;2.55;1.55;;;20.10;53.70;;;;;;5120162;23;20025;-64
2022/06/30 10:53:26;;;;;;;1.40;1.23;;;20.10;53.70;;;;;;5099629;23;20463;-61
2022/06/30 10:55:28;;;;;;;3.63;1.77;;;20.10;53.60;;;;;;5119595;23;20281;-67
2022/06/30 10:58:01;;;;;;;1.85;1.55;;;20.10;53.70;;;;;;5071052;23;20095;-63
2022/06/30 11:00:04;;;;;;;2.75;1.67;;;20.10;53.70;;;;;;5070165;23;20029;-63
2022/06/30 11:02:12;;;;;;;1.90;1.45;;;20.10;53.70;;;;;;5095762;23;20107;-68
2022/06/30 11:04:14;;;;;;;1.35;1.25;;;20.00;53.90;;;;;;5097140;23;20028;-61
2022/06/30 11:06:16;;;;;;;2.25;1.67;;;20.10;53.80;;;;;;5099493;23;20033;-65
2022/06/30 11:08:39;;;;;;;1.70;1.48;;;20.10;53.80;;;;;;5099649;23;20762;-64
2022/06/30 11:10:41;;;;;;;3.13;1.60;;;20.00;53.80;;;;;;5093627;23;20032;-66